SAS875 EKCH-EKYT
Flight info
| Callsign | SAS875 |
|---|---|
| Flight time | N/A |
| Altitude | 20000 |
| Route | GOLGA T506 LAPMA L621 AAL |
| Aircraft | A20N/M-SDE2E3FGHIRWXY/LB1 |
Departure
| Time | 2026-05-04 15:34 |
|---|---|
| Airport | Copenhagen Kastrup Airport (EKCH) |
Arrival
| Time | N/A |
|---|---|
| Airport | Aalborg Airport (EKYT) |
| Time | Latitude | Longitude | Altitude | Speed | Heading |
|---|---|---|---|---|---|
| 2026-05-04 15:20 | 55.62719 | 12.65784 | 17 ft | 0 kts | 268° |
| 2026-05-04 15:24 | 55.62718 | 12.65816 | 17 ft | 2 kts | 281° |
| 2026-05-04 15:25 | 55.62713 | 12.65844 | 17 ft | 2 kts | 298° |
| 2026-05-04 15:25 | 55.62704 | 12.65868 | 19 ft | 2 kts | 318° |
| 2026-05-04 15:25 | 55.62690 | 12.65885 | 17 ft | 2 kts | 336° |
| 2026-05-04 15:26 | 55.62660 | 12.65898 | 17 ft | 1 kts | 357° |
| 2026-05-04 15:26 | 55.62656 | 12.65898 | 18 ft | 0 kts | 359° |
| 2026-05-04 15:29 | 55.62678 | 12.65897 | 17 ft | 9 kts | 359° |
| 2026-05-04 15:30 | 55.62411 | 12.66139 | 16 ft | 17 kts | 219° |
| 2026-05-04 15:30 | 55.62293 | 12.65432 | 17 ft | 24 kts | 269° |
| 2026-05-04 15:31 | 55.62157 | 12.65126 | 17 ft | 18 kts | 212° |
| 2026-05-04 15:31 | 55.62034 | 12.64984 | 17 ft | 24 kts | 215° |
| 2026-05-04 15:32 | 55.61648 | 12.64427 | 17 ft | 26 kts | 265° |
| 2026-05-04 15:32 | 55.61574 | 12.63999 | 20 ft | 0 kts | 220° |
| 2026-05-04 15:33 | 55.61554 | 12.63969 | 19 ft | 21 kts | 220° |
| 2026-05-04 15:34 | 55.59928 | 12.61401 | 551 ft | 137 kts | 225° |
| 2026-05-04 15:34 | 55.59203 | 12.60331 | 1068 ft | 134 kts | 226° |
| 2026-05-04 15:34 | 55.57745 | 12.58101 | 2127 ft | 150 kts | 226° |
| 2026-05-04 15:35 | 55.56102 | 12.55139 | 3256 ft | 189 kts | 245° |
| 2026-05-04 15:35 | 55.55822 | 12.52784 | 3777 ft | 208 kts | 277° |
| 2026-05-04 15:35 | 55.56072 | 12.50150 | 4493 ft | 227 kts | 281° |
| 2026-05-04 15:36 | 55.56672 | 12.44328 | 6312 ft | 246 kts | 279° |
| 2026-05-04 15:36 | 55.56973 | 12.41335 | 7346 ft | 249 kts | 279° |
| 2026-05-04 15:36 | 55.57273 | 12.38288 | 8339 ft | 255 kts | 279° |
| 2026-05-04 15:37 | 55.57675 | 12.35215 | 9336 ft | 260 kts | 291° |
| 2026-05-04 15:37 | 55.58698 | 12.32537 | 10284 ft | 271 kts | 313° |
| 2026-05-04 15:37 | 55.60370 | 12.30682 | 10744 ft | 302 kts | 336° |
| 2026-05-04 15:37 | 55.62500 | 12.29927 | 11106 ft | 330 kts | 349° |
| 2026-05-04 15:38 | 55.64833 | 12.29564 | 11835 ft | 340 kts | 351° |
| 2026-05-04 15:38 | 55.67124 | 12.28668 | 12693 ft | 336 kts | 332° |
| 2026-05-04 15:38 | 55.69094 | 12.26489 | 13566 ft | 334 kts | 317° |
| 2026-05-04 15:38 | 55.70863 | 12.23823 | 14451 ft | 335 kts | 314° |
| 2026-05-04 15:39 | 55.72621 | 12.21072 | 15236 ft | 339 kts | 315° |
| 2026-05-04 15:39 | 55.74431 | 12.18345 | 16027 ft | 344 kts | 316° |
| 2026-05-04 15:39 | 55.78206 | 12.12964 | 17585 ft | 352 kts | 317° |
| 2026-05-04 15:40 | 55.80147 | 12.10264 | 18325 ft | 357 kts | 317° |
| 2026-05-04 15:40 | 55.82114 | 12.07535 | 18999 ft | 360 kts | 317° |
| 2026-05-04 15:40 | 55.84099 | 12.04778 | 19410 ft | 364 kts | 317° |
| 2026-05-04 15:40 | 55.86090 | 12.02009 | 19518 ft | 363 kts | 317° |
| 2026-05-04 15:41 | 55.88082 | 11.99234 | 19623 ft | 364 kts | 317° |
| 2026-05-04 15:41 | 55.90076 | 11.96450 | 19728 ft | 364 kts | 317° |
| 2026-05-04 15:41 | 55.92070 | 11.93661 | 19851 ft | 365 kts | 317° |
| 2026-05-04 15:41 | 55.94068 | 11.90860 | 19940 ft | 365 kts | 317° |
| 2026-05-04 15:42 | 55.96066 | 11.88057 | 19972 ft | 365 kts | 317° |
| 2026-05-04 15:42 | 55.98066 | 11.85249 | 19967 ft | 366 kts | 317° |
| 2026-05-04 15:42 | 56.00062 | 11.82443 | 19968 ft | 366 kts | 317° |
| 2026-05-04 15:42 | 56.02059 | 11.79632 | 19996 ft | 364 kts | 317° |
| 2026-05-04 15:43 | 56.04043 | 11.76836 | 19993 ft | 363 kts | 317° |
| 2026-05-04 15:43 | 56.06031 | 11.74029 | 19993 ft | 364 kts | 317° |
| 2026-05-04 15:43 | 56.08018 | 11.71220 | 19991 ft | 364 kts | 317° |
| 2026-05-04 15:43 | 56.10001 | 11.68412 | 19991 ft | 364 kts | 317° |
| 2026-05-04 15:44 | 56.11988 | 11.65597 | 19984 ft | 364 kts | 317° |
| 2026-05-04 15:44 | 56.13971 | 11.62782 | 19984 ft | 364 kts | 317° |
| 2026-05-04 15:44 | 56.15954 | 11.59965 | 19983 ft | 364 kts | 317° |
| 2026-05-04 15:44 | 56.17937 | 11.57143 | 19983 ft | 364 kts | 317° |
| 2026-05-04 15:45 | 56.19918 | 11.54319 | 19980 ft | 364 kts | 317° |
| 2026-05-04 15:45 | 56.21898 | 11.51494 | 19977 ft | 364 kts | 317° |
| 2026-05-04 15:45 | 56.23879 | 11.48664 | 19983 ft | 364 kts | 317° |
| 2026-05-04 15:45 | 56.25859 | 11.45828 | 19977 ft | 364 kts | 317° |
| 2026-05-04 15:46 | 56.27840 | 11.42990 | 19978 ft | 364 kts | 317° |
| 2026-05-04 15:46 | 56.29820 | 11.40149 | 19970 ft | 363 kts | 317° |
| 2026-05-04 15:46 | 56.31788 | 11.37324 | 19744 ft | 361 kts | 317° |
| 2026-05-04 15:46 | 56.33738 | 11.34521 | 19404 ft | 356 kts | 317° |
| 2026-05-04 15:47 | 56.35657 | 11.31757 | 18552 ft | 359 kts | 317° |
| 2026-05-04 15:47 | 56.37658 | 11.28864 | 17121 ft | 368 kts | 317° |
| 2026-05-04 15:47 | 56.39651 | 11.25984 | 16049 ft | 365 kts | 317° |
| 2026-05-04 15:47 | 56.41596 | 11.23174 | 15093 ft | 360 kts | 317° |
| 2026-05-04 15:48 | 56.43567 | 11.20325 | 14124 ft | 356 kts | 317° |
| 2026-05-04 15:48 | 56.45461 | 11.17580 | 13185 ft | 352 kts | 317° |
| 2026-05-04 15:48 | 56.49225 | 11.12108 | 11302 ft | 343 kts | 317° |
| 2026-05-04 15:49 | 56.51070 | 11.09420 | 10420 ft | 339 kts | 317° |
| 2026-05-04 15:49 | 56.52885 | 11.06777 | 10055 ft | 320 kts | 317° |
| 2026-05-04 15:49 | 56.54560 | 11.04342 | 9848 ft | 298 kts | 317° |
| 2026-05-04 15:49 | 56.56126 | 11.02063 | 9650 ft | 279 kts | 317° |
| 2026-05-04 15:50 | 56.57590 | 10.99920 | 9126 ft | 272 kts | 317° |
| 2026-05-04 15:50 | 56.59055 | 10.97766 | 8481 ft | 270 kts | 317° |
| 2026-05-04 15:50 | 56.60505 | 10.95630 | 7853 ft | 268 kts | 317° |
| 2026-05-04 15:50 | 56.61949 | 10.93502 | 7233 ft | 266 kts | 317° |
| 2026-05-04 15:51 | 56.63383 | 10.91391 | 6640 ft | 264 kts | 317° |
| 2026-05-04 15:51 | 56.64798 | 10.89309 | 6119 ft | 260 kts | 318° |
| 2026-05-04 15:51 | 56.66197 | 10.87249 | 5520 ft | 258 kts | 318° |
| 2026-05-04 15:51 | 56.67587 | 10.85200 | 4949 ft | 256 kts | 318° |
| 2026-05-04 15:52 | 56.68969 | 10.83160 | 4422 ft | 256 kts | 318° |
| 2026-05-04 15:52 | 56.70346 | 10.81129 | 4010 ft | 254 kts | 318° |
| 2026-05-04 15:52 | 56.71700 | 10.79132 | 3777 ft | 246 kts | 318° |
| 2026-05-04 15:52 | 56.73028 | 10.77172 | 3649 ft | 248 kts | 318° |
| 2026-05-04 15:53 | 56.74380 | 10.75169 | 3519 ft | 246 kts | 318° |
| 2026-05-04 15:53 | 56.75687 | 10.73230 | 3394 ft | 245 kts | 318° |
| 2026-05-04 15:53 | 56.77008 | 10.71270 | 3267 ft | 245 kts | 318° |
| 2026-05-04 15:53 | 56.78328 | 10.69312 | 3138 ft | 244 kts | 318° |
| 2026-05-04 15:54 | 56.79646 | 10.67354 | 3008 ft | 244 kts | 318° |
| 2026-05-04 15:54 | 56.80962 | 10.65398 | 2876 ft | 244 kts | 318° |
| 2026-05-04 15:54 | 56.82274 | 10.63447 | 2750 ft | 243 kts | 318° |
| 2026-05-04 15:54 | 56.83582 | 10.61500 | 2617 ft | 242 kts | 318° |
| 2026-05-04 15:55 | 56.84887 | 10.59557 | 2488 ft | 242 kts | 318° |
| 2026-05-04 15:55 | 56.86190 | 10.57611 | 2364 ft | 242 kts | 318° |
| 2026-05-04 15:55 | 56.87488 | 10.55673 | 2226 ft | 240 kts | 318° |
| 2026-05-04 15:55 | 56.88782 | 10.53741 | 2099 ft | 240 kts | 318° |
| 2026-05-04 15:56 | 56.90077 | 10.51803 | 1995 ft | 241 kts | 318° |
| 2026-05-04 15:56 | 56.91370 | 10.49869 | 1973 ft | 239 kts | 318° |
| 2026-05-04 15:56 | 56.92656 | 10.47942 | 1973 ft | 240 kts | 317° |
| 2026-05-04 15:56 | 56.93943 | 10.46012 | 1971 ft | 235 kts | 318° |
| 2026-05-04 15:57 | 56.95166 | 10.44182 | 1967 ft | 220 kts | 317° |
| 2026-05-04 15:57 | 56.96309 | 10.42471 | 1961 ft | 204 kts | 317° |
| 2026-05-04 15:57 | 56.97409 | 10.40814 | 1969 ft | 208 kts | 316° |
| 2026-05-04 15:57 | 56.98517 | 10.39139 | 1968 ft | 205 kts | 316° |
| 2026-05-04 15:58 | 56.99620 | 10.37472 | 1967 ft | 206 kts | 317° |
| 2026-05-04 15:58 | 57.00724 | 10.35805 | 1972 ft | 206 kts | 317° |
| 2026-05-04 15:58 | 57.01830 | 10.34136 | 1971 ft | 206 kts | 317° |
| 2026-05-04 15:58 | 57.02932 | 10.32468 | 1968 ft | 202 kts | 316° |
| 2026-05-04 15:59 | 57.03973 | 10.30901 | 1977 ft | 187 kts | 316° |
| 2026-05-04 15:59 | 57.04938 | 10.29445 | 2017 ft | 171 kts | 316° |
| 2026-05-04 15:59 | 57.05869 | 10.28037 | 1991 ft | 175 kts | 316° |
| 2026-05-04 15:59 | 57.06801 | 10.26621 | 1983 ft | 173 kts | 316° |
| 2026-05-04 16:00 | 57.07698 | 10.25265 | 1992 ft | 157 kts | 316° |
| 2026-05-04 16:00 | 57.08515 | 10.24033 | 1992 ft | 153 kts | 316° |
| 2026-05-04 16:00 | 57.09330 | 10.22791 | 2000 ft | 151 kts | 316° |
| 2026-05-04 16:00 | 57.10142 | 10.21554 | 1984 ft | 152 kts | 315° |
| 2026-05-04 16:01 | 57.10870 | 10.20168 | 1922 ft | 151 kts | 302° |
| 2026-05-04 16:01 | 57.11316 | 10.18429 | 1920 ft | 150 kts | 285° |
| 2026-05-04 16:01 | 57.11447 | 10.16710 | 1982 ft | 122 kts | 273° |
| 2026-05-04 16:01 | 57.11419 | 10.15224 | 1988 ft | 112 kts | 268° |
| 2026-05-04 16:02 | 57.11345 | 10.13807 | 1997 ft | 112 kts | 267° |
| 2026-05-04 16:02 | 57.11255 | 10.12377 | 1991 ft | 113 kts | 266° |
| 2026-05-04 16:02 | 57.11068 | 10.09499 | 1990 ft | 113 kts | 267° |
| 2026-05-04 16:03 | 57.10975 | 10.08066 | 2002 ft | 113 kts | 267° |
| 2026-05-04 16:03 | 57.10883 | 10.06635 | 1992 ft | 113 kts | 267° |
| 2026-05-04 16:03 | 57.10790 | 10.05206 | 1959 ft | 113 kts | 266° |
| 2026-05-04 16:03 | 57.10697 | 10.03781 | 1822 ft | 110 kts | 266° |
| 2026-05-04 16:04 | 57.10607 | 10.02376 | 1685 ft | 114 kts | 266° |
| 2026-05-04 16:04 | 57.10420 | 9.99485 | 1365 ft | 113 kts | 267° |
| 2026-05-04 16:04 | 57.10327 | 9.98059 | 1211 ft | 112 kts | 266° |
| 2026-05-04 16:05 | 57.10234 | 9.96631 | 1057 ft | 113 kts | 266° |
| 2026-05-04 16:05 | 57.10147 | 9.95215 | 873 ft | 109 kts | 265° |
| 2026-05-04 16:05 | 57.09949 | 9.92381 | 579 ft | 112 kts | 266° |
| 2026-05-04 16:06 | 57.09851 | 9.90933 | 440 ft | 118 kts | 267° |
| 2026-05-04 16:06 | 57.09608 | 9.86978 | 19 ft | 113 kts | 267° |
| 2026-05-04 16:07 | 57.09538 | 9.85870 | 16 ft | 58 kts | 261° |